首页
METAR-TAF:

METAR-TAF

机场 :

Inukjuak, 魁北克, 加拿大

纬度: 58-28N, 经度: 078-05W, 海拔: 25米

当前天气观测

该预报发布于1小时和8分钟前的21:00 UTC
风速9节,风向西南
温度 13°C
湿度 30%
气压 1013 hPa
能見度: 14.5公里
天空无云

METAR: CYPH 262100Z AUTO 22009KT 9SM CLR 13/M04 A2991 RMK SLP132

时间: 18:08 (22:08 UTC)

预报

该预报发布于4小时和28分钟前的17:40 UTC
预报有效从26日的 18点(UTC)到 27日的 06点(UTC)
风速7节,风向南转南东
能見度: 10公里
散云层高于18000英尺
成为
从 26日的 18点(UTC)到 26日的 20点(UTC)
风速7节,风向南转西南
成为
从 27日的 02点(UTC)到 27日的 04点(UTC)
风速3节,风向多变

TAF: CYPH 261740Z 2618/2706 15007KT P6SM SCT180 BECMG 2618/2620 20007KT BECMG 2702/2704 VRB03KT RMK FCST BASED ON AUTO OBS. NXT FCST BY 270000Z

超过4000个机场的气象观测和天气预报(METAR&TAF报告)。

可查询的气象台以黄色和红色小点在地图上表示。

将鼠标移到小点上方,可查看气象台名称。

然后点击查看天气观测和预报。

如需切换地图:点击带黑十字的绿色按钮放大地图;点击带横线的绿色按钮缩小地图;或者点击绿色箭头查看邻近地区的地图。


METAR-TAF: